KTCM

McChord Field (Joint Base Lewis-McChord) Airport

Tacoma, Washington, USA
METAR KTCM 151848Z AUTO 00000KT 2 3/4SM BR FEW021 SCT028 SCT050 BKN060 06/05 A2962 RMK AO2 VIS 1 1/8V2 3/4 SLP036 $
Observed Flight Rules
Feb-15 @ 18:48 UTC (19 minutes ago) Instrument Flight Rules
Visibility Clouds Conditions
2 3/4 miles
  • Few at 2,100' AGL
  • Scattered at 2,800' AGL
  • Scattered at 5,000' AGL
  • Broken at 6,000' AGL
  • Mist
Temperatures Readings
Current 6°C / 43°F
Dewpoint 5°C / 41°F
Humidity 93%
Altimeter 29.62" Hg
Pressure 1003.6 hPa
Elevation 98
METAR KTCM 151848Z AUTO 00000KT 2 3/4SM BR FEW021 SCT028 SCT050 BKN060 06/05 A2962 RMK AO2 VIS 1 1/8V2 3/4 SLP036 $
Observed Flight Rules
Feb-15 @ 18:48 UTC
(19 minutes ago)
IFR
Clouds
  • Few at 2,100' AGL
  • Scattered at 2,800' AGL
  • Scattered at 5,000' AGL
  • Broken at 6,000' AGL
Conditions
  • Mist
Temperature Dewpoint
6°C / 43°F 5°C / 41°F
Humidity Altimeter Pressure
93% 29.62" Hg 1003.6 hPa